Time;durP1;ratioP1;P1;durP2;ratioP2;P2;SDS_P1;SDS_P2;PMS_P1;PMS_P2;Temp;Humidity;BMP_temperature;BMP_pressure;BME280_temperature;BME280_humidity;BME280_pressure;Samples;Min_cycle;Max_cycle;Signal;HPM_P1;HPM_P2
2021/01/12 00:04:55;;;;;;;38.67;13.47;;;-3.10;96.40;;;;;;12624441;23;88999;-69
2021/01/12 00:09:56;;;;;;;42.20;13.10;;;-3.00;96.50;;;;;;12626015;23;87482;-68
2021/01/12 00:14:59;;;;;;;41.13;13.67;;;-3.00;96.40;;;;;;12628834;23;87931;-68
2021/01/12 00:20:00;;;;;;;;;;;-3.00;96.40;;;;;;12628107;23;87745;-68
2021/01/12 00:25:05;;;;;;;;;;;-3.00;96.50;;;;;;12632889;23;88014;-68
2021/01/12 00:30:09;;;;;;;;;;;-3.10;96.50;;;;;;12633906;23;86690;-68
2021/01/12 00:35:11;;;;;;;;;;;-3.20;96.60;;;;;;12632875;23;87581;-68
2021/01/12 00:40:13;;;;;;;;;;;-3.30;96.60;;;;;;12632685;23;87278;-69
2021/01/12 00:45:16;;;;;;;;;;;-3.40;96.60;;;;;;12634034;23;87555;-68
2021/01/12 00:50:17;;;;;;;;;;;-3.40;96.70;;;;;;12629769;23;87482;-68
2021/01/12 00:55:18;;;;;;;;;;;-3.40;96.70;;;;;;12630484;23;88519;-68
2021/01/12 01:00:21;;;;;;;;;;;-3.40;96.80;;;;;;12627791;23;89020;-68
2021/01/12 01:05:23;;;;;;;;;;;-3.20;97.10;;;;;;12631155;23;87451;-69
2021/01/12 01:10:24;;;;;;;;;;;-3.10;97.10;;;;;;12631892;23;87206;-68
2021/01/12 01:15:27;;;;;;;;;;;-3.00;97.10;;;;;;12633387;23;87711;-69
2021/01/12 01:20:28;;;;;;;;;;;-3.00;97.20;;;;;;12631295;23;87798;-68
2021/01/12 01:25:29;;;;;;;;;;;-3.00;97.20;;;;;;12606030;23;89811;-68
2021/01/12 01:30:32;;;;;;;;;;;-2.90;97.30;;;;;;12632805;23;86961;-68
2021/01/12 01:35:33;;;;;;;;;;;-2.90;97.30;;;;;;12631860;23;87655;-68
2021/01/12 01:40:35;;;;;;;;;;;-2.80;97.30;;;;;;12631369;23;87819;-68
2021/01/12 01:45:37;;;;;;;;;;;-2.90;97.20;;;;;;12627145;23;88621;-69
2021/01/12 01:50:41;;;;;;;;;;;-2.90;97.30;;;;;;12626452;23;88126;-69
2021/01/12 01:55:43;;;;;;;;;;;-2.90;97.30;;;;;;12627688;23;87026;-68
2021/01/12 02:00:46;;;;;;;;;;;-3.00;97.30;;;;;;12625134;23;87144;-69
2021/01/12 02:05:50;;;;;;;;;;;-3.00;97.50;;;;;;12625315;23;88534;-69
2021/01/12 02:10:54;;;;;;;;;;;-3.00;97.50;;;;;;12626095;23;90165;-69
2021/01/12 02:16:00;;;;;;;;;;;-3.10;97.60;;;;;;12627048;23;87637;-69
2021/01/12 02:21:03;;;;;;;;;;;-3.10;97.60;;;;;;12627744;23;87324;-68
2021/01/12 02:26:08;;;;;;;;;;;-3.00;97.70;;;;;;12631047;23;88389;-68
2021/01/12 02:31:09;;;;;;;;;;;-3.00;97.60;;;;;;12629786;23;88070;-69
2021/01/12 02:36:12;;;;;;;;;;;-3.10;97.60;;;;;;12631178;23;89491;-68
2021/01/12 02:41:17;;;;;;;;;;;-3.00;97.70;;;;;;12633478;23;87685;-69
2021/01/12 02:46:19;;;;;;;;;;;-3.00;97.70;;;;;;12629721;23;88025;-68
2021/01/12 02:51:20;;;;;;;;;;;-3.00;97.70;;;;;;12632966;23;87408;-68
2021/01/12 02:56:25;;;;;;;;;;;-3.10;97.70;;;;;;12631158;23;87524;-68
2021/01/12 03:01:27;;;;;;;;;;;-3.10;97.80;;;;;;12626148;23;87453;-68
2021/01/12 03:06:30;;;;;;;;;;;-3.10;97.80;;;;;;12610704;23;88434;-68
2021/01/12 03:11:32;;;;;;;;;;;-3.10;97.80;;;;;;12608604;23;86746;-68
2021/01/12 03:16:34;;;;;;;;;;;-3.10;97.90;;;;;;12616362;23;89207;-68
2021/01/12 03:21:35;;;;;;;;;;;-3.10;97.90;;;;;;12609769;23;87607;-68
2021/01/12 03:26:38;;;;;;;;;;;-3.10;98.00;;;;;;12609573;23;88322;-69
2021/01/12 03:31:42;;;;;;;;;;;-3.10;98.00;;;;;;12606879;23;87477;-68
2021/01/12 03:36:44;;;;;;;;;;;-3.00;98.00;;;;;;12606059;23;87445;-68
2021/01/12 03:41:46;;;;;;;;;;;-2.90;98.00;;;;;;12606061;23;87710;-68
2021/01/12 03:46:50;;;;;;;;;;;-2.90;98.00;;;;;;12605294;23;89403;-68
2021/01/12 03:51:51;;;;;;;;;;;-2.90;98.10;;;;;;12578664;23;88626;-68
2021/01/12 03:56:56;;;;;;;;;;;-2.90;98.10;;;;;;12610220;23;88190;-69
2021/01/12 04:01:57;;;;;;;;;;;-2.80;98.10;;;;;;12606910;23;86932;-68
2021/01/12 04:06:59;;;;;;;;;;;-2.80;98.10;;;;;;12605089;23;87686;-69
2021/01/12 04:12:01;;;;;;;;;;;-2.70;98.20;;;;;;12604914;23;88661;-68
2021/01/12 04:17:03;;;;;;;;;;;-2.70;98.20;;;;;;12604919;23;88650;-68
2021/01/12 04:22:04;;;;;;;;;;;-2.60;98.20;;;;;;12612330;23;87638;-74
2021/01/12 04:27:08;;;;;;;;;;;-2.50;98.20;;;;;;12610286;23;87544;-68
2021/01/12 04:32:10;;;;;;;;;;;-2.50;98.20;;;;;;12612119;23;88012;-68
2021/01/12 04:37:11;;;;;;;;;;;-2.40;98.20;;;;;;12610113;23;87422;-68
2021/01/12 04:42:14;;;;;;;;;;;-2.30;98.10;;;;;;12608314;23;87798;-68
2021/01/12 04:47:16;;;;;;;;;;;-2.20;98.00;;;;;;12609508;23;88852;-70
2021/01/12 04:52:17;;;;;;;;;;;-2.10;98.00;;;;;;12607328;23;88791;-69
2021/01/12 04:57:20;;;;;;;;;;;-2.00;98.00;;;;;;12610709;23;87459;-68
2021/01/12 05:02:21;;;;;;;;;;;-1.90;97.90;;;;;;12582255;23;89208;-68
2021/01/12 05:07:22;;;;;;;;;;;-1.70;97.90;;;;;;12607324;23;89728;-69
2021/01/12 05:12:25;;;;;;;;;;;-1.60;97.80;;;;;;12610817;23;87498;-69
2021/01/12 05:17:30;;;;;;;;;;;-1.40;97.80;;;;;;12610829;23;87591;-69
2021/01/12 05:22:38;;;;;;;;;;;-1.30;97.70;;;;;;12610131;23;88894;-69
2021/01/12 05:27:40;;;;;;;;;;;-1.10;97.70;;;;;;12609552;23;87729;-69
2021/01/12 05:32:43;;;;;;;;;;;-1.00;97.60;;;;;;12608901;23;87794;-70
2021/01/12 05:37:44;;;;;;;;;;;-0.90;97.60;;;;;;12615727;23;88461;-69
2021/01/12 05:42:49;;;;;;;;;;;-0.80;97.60;;;;;;12609670;23;87471;-69
2021/01/12 05:47:55;;;;;;;;;;;-0.80;97.50;;;;;;12604874;23;87213;-69
2021/01/12 05:53:01;;;;;;;;;;;-0.90;97.50;;;;;;12606877;23;87885;-69
2021/01/12 05:58:09;;;;;;;;;;;-0.90;97.50;;;;;;12605401;23;89091;-69
2021/01/12 06:03:14;;;;;;;;;;;-0.90;97.50;;;;;;12605971;23;87630;-69
2021/01/12 06:08:16;;;;;;;;;;;-0.80;97.50;;;;;;12606009;23;88367;-69
2021/01/12 06:13:19;;;;;;;;;;;-0.70;97.50;;;;;;12606042;23;87183;-69
2021/01/12 06:18:20;;;;;;;;;;;-0.70;97.50;;;;;;12575712;23;89877;-71
2021/01/12 06:23:26;;;;;;;;;;;-0.60;97.40;;;;;;12580105;23;89357;-70
2021/01/12 06:28:29;;;;;;;;;;;-0.60;97.40;;;;;;12603804;23;87355;-69
2021/01/12 06:33:34;;;;;;;;;;;-0.60;97.40;;;;;;12579226;23;90059;-69
2021/01/12 06:38:36;;;;;;;;;;;-0.50;97.30;;;;;;12603973;23;88341;-69
2021/01/12 06:43:39;;;;;;;;;;;-0.40;97.20;;;;;;12605500;23;88050;-69
2021/01/12 06:48:43;;;;;;;;;;;-0.40;97.20;;;;;;12606068;23;88880;-70
2021/01/12 06:53:45;;;;;;;;;;;-0.40;97.30;;;;;;12587289;23;88851;-70
2021/01/12 06:58:48;;;;;;;;;;;-0.40;97.30;;;;;;12612346;23;88364;-69
2021/01/12 07:03:50;;;;;;;;;;;-0.30;97.30;;;;;;12609981;23;87596;-69
2021/01/12 07:08:53;;;;;;;;;;;-0.20;97.30;;;;;;12612134;23;87897;-69
2021/01/12 07:13:58;;;;;;;;;;;-0.20;97.20;;;;;;12612565;23;88757;-68
2021/01/12 07:19:00;;;;;;;;;;;-0.20;97.10;;;;;;12613171;23;88832;-69
2021/01/12 07:24:01;;;;;;;;;;;-0.20;97.00;;;;;;12613992;23;86892;-69
2021/01/12 07:29:08;;;;;;;;;;;-0.20;96.80;;;;;;12611060;23;87727;-68
2021/01/12 07:34:16;;;;;;;;;;;-0.30;96.80;;;;;;12609901;23;87500;-68
2021/01/12 07:39:18;;;;;;;;;;;-0.20;96.80;;;;;;12608184;23;89079;-69
2021/01/12 07:44:20;;;;;;;;;;;-0.20;96.60;;;;;;12584279;23;89706;-69
2021/01/12 07:49:22;;;;;;;;;;;-0.20;96.60;;;;;;12616900;23;87567;-69
2021/01/12 07:54:24;;;;;;;;;;;-0.20;96.50;;;;;;12612257;23;87606;-69
2021/01/12 07:59:29;;;;;;;;;;;-0.10;96.50;;;;;;12610949;23;88516;-69
2021/01/12 08:04:31;;;;;;;;;;;-0.10;96.30;;;;;;12580200;23;88331;-69
2021/01/12 08:09:33;;;;;;;;;;;0.00;96.30;;;;;;12609422;23;87508;-69
2021/01/12 08:14:35;;;;;;;;;;;0.10;96.10;;;;;;12608467;23;87382;-69
2021/01/12 08:19:37;;;;;;;;;;;0.10;96.20;;;;;;12614060;23;87465;-69
2021/01/12 08:24:39;;;;;;;;;;;0.30;96.20;;;;;;12607552;23;87832;-69
2021/01/12 08:29:43;;;;;;;;;;;0.50;96.30;;;;;;12607131;23;88936;-70
2021/01/12 08:34:51;;;;;;;;;;;0.60;96.30;;;;;;12613629;23;87236;-69
2021/01/12 08:39:53;;;;;;;;;;;0.70;96.20;;;;;;12607917;23;88268;-70
2021/01/12 08:44:56;;;;;;;;;;;0.90;96.20;;;;;;12609997;23;87514;-69
2021/01/12 08:50:02;;;;;;;;;;;1.10;96.00;;;;;;12611195;23;88884;-69
2021/01/12 08:55:04;;;;;;;;;;;1.30;95.80;;;;;;12581866;23;89580;-68
2021/01/12 09:00:10;;;;;;;;;;;1.40;95.40;;;;;;12606214;23;88149;-69
2021/01/12 09:05:13;;;;;;;;;;;1.50;95.50;;;;;;12609645;23;88063;-69
2021/01/12 09:10:25;;;;;;;;;;;1.50;95.30;;;;;;12608590;23;87418;-68
2021/01/12 09:15:28;;;;;;;;;;;1.40;95.10;;;;;;12609417;23;87245;-70
2021/01/12 09:20:29;;;;;;;;;;;1.40;95.20;;;;;;12607124;23;88027;-69
2021/01/12 09:25:32;;;;;;;;;;;1.50;95.20;;;;;;12553016;23;88028;-69
2021/01/12 09:30:34;;;;;;;;;;;1.50;95.20;;;;;;12607326;23;88939;-69
2021/01/12 09:35:36;;;;;;;;;;;1.60;95.10;;;;;;12608787;23;87056;-68
2021/01/12 09:40:38;;;;;;;;;;;1.70;94.90;;;;;;12606836;23;88451;-69
2021/01/12 09:45:41;;;;;;;;;;;1.70;94.80;;;;;;12614327;23;88446;-68
2021/01/12 09:50:42;;;;;;;;;;;1.80;94.70;;;;;;12608864;23;88047;-69
2021/01/12 09:55:44;;;;;;;;;;;1.80;94.60;;;;;;12584060;23;88648;-68
2021/01/12 10:00:46;;;;;;;;;;;1.90;95.00;;;;;;12607715;23;87744;-69
2021/01/12 10:05:47;;;;;;;;;;;1.90;94.60;;;;;;12608887;23;87688;-70
2021/01/12 10:10:49;;;;;;;;;;;1.90;94.60;;;;;;12606728;23;88481;-68
2021/01/12 10:15:51;;;;;;;;;;;1.90;94.70;;;;;;12609414;23;87861;-70
2021/01/12 10:20:52;;;;;;;;;;;2.10;94.90;;;;;;12614474;23;87435;-71
2021/01/12 10:25:56;;;;;;;;;;;2.10;95.00;;;;;;12603546;23;87511;-70
2021/01/12 10:31:02;;;;;;;;;;;2.20;95.20;;;;;;12614928;23;87419;-71
2021/01/12 10:36:04;;;;;;;;;;;2.30;95.50;;;;;;12605454;23;87652;-71
2021/01/12 10:41:05;;;;;;;;;;;2.20;96.20;;;;;;12609275;23;88239;-70
2021/01/12 10:46:08;;;;;;;;;;;2.10;96.80;;;;;;12602344;23;86290;-69
2021/01/12 10:51:10;;;;;;;;;;;2.00;97.40;;;;;;12602926;23;87427;-69
2021/01/12 10:56:14;;;;;;;;;;;1.90;97.80;;;;;;12607667;23;87416;-70
2021/01/12 11:01:18;;;;;;;;;;;1.90;98.10;;;;;;12576739;23;89794;-68
2021/01/12 11:06:21;;;;;;;;;;;1.80;98.30;;;;;;12607831;23;87437;-69
2021/01/12 11:11:23;;;;;;;;;;;1.80;98.60;;;;;;12604856;23;87384;-70
2021/01/12 11:16:25;;;;;;;;;;;1.70;98.80;;;;;;12606622;23;87318;-70
2021/01/12 11:21:26;;;;;;;;;;;1.80;98.90;;;;;;12577388;23;87941;-70
2021/01/12 11:26:28;;;;;;;;;;;1.80;99.00;;;;;;12605703;23;89148;-68
2021/01/12 11:31:31;;;;;;;;;;;1.60;99.00;;;;;;12603849;23;88930;-69
2021/01/12 11:36:35;;;;;;;;;;;1.50;99.10;;;;;;12583953;23;88191;-70
2021/01/12 11:41:37;;;;;;;;;;;1.40;99.30;;;;;;12604378;23;88502;-70
2021/01/12 11:46:39;;;;;;;;;;;1.40;99.50;;;;;;12608920;23;87986;-69
2021/01/12 11:51:41;;;;;;;;;;;1.50;99.60;;;;;;12607249;23;87885;-69
2021/01/12 11:56:48;;;;;;;;;;;1.60;99.70;;;;;;12607424;23;87530;-68
2021/01/12 12:01:53;;;;;;;;;;;1.60;99.70;;;;;;12609973;23;88028;-69
2021/01/12 12:06:55;;;;;;;;;;;1.70;99.70;;;;;;12574478;23;89225;-89
2021/01/12 12:11:57;;;;;;;;;;;1.80;99.70;;;;;;12370401;23;89934;-89
2021/01/12 12:17:01;;;;;;;;;;;1.80;99.70;;;;;;12345091;23;90489;-89
2021/01/12 12:22:02;;;;;;;;;;;1.90;99.80;;;;;;12311527;23;89902;-90
2021/01/12 12:27:04;;;;;;;;;;;2.00;99.80;;;;;;12310724;23;90345;-89
2021/01/12 12:32:07;;;;;;;;;;;2.10;99.70;;;;;;12287224;23;90943;-90
2021/01/12 12:37:10;;;;;;;;;;;2.20;99.70;;;;;;12253302;23;89963;-90
2021/01/12 12:42:11;;;;;;;;;;;2.20;99.70;;;;;;12286276;23;90793;-90
2021/01/12 12:47:15;;;;;;;;;;;2.10;99.90;;;;;;12252754;23;89128;-90
2021/01/12 12:52:17;;;;;;;;;;;2.10;99.70;;;;;;12228449;23;90135;-90
2021/01/12 12:57:18;;;;;;;;;;;1.90;99.90;;;;;;12250833;23;90695;-89
2021/01/12 13:02:22;;;;;;;;;;;1.90;99.90;;;;;;12254170;23;87640;-91
2021/01/12 13:07:24;;;;;;;;;;;1.80;99.90;;;;;;12287727;23;87712;-89
2021/01/12 13:12:27;;;;;;;;;;;1.80;99.90;;;;;;12344915;23;89935;-89
2021/01/12 13:17:33;;;;;;;;;;;1.80;99.90;;;;;;12348155;23;89046;-89
2021/01/12 13:22:36;;;;;;;;;;;1.90;99.90;;;;;;12365341;23;91430;-88
2021/01/12 13:27:38;;;;;;;;;;;1.80;99.90;;;;;;12469216;23;90632;-91
2021/01/12 13:32:42;;;;;;;;;;;1.80;99.90;;;;;;12527422;23;91172;-89
2021/01/12 13:37:43;;;;;;;;;;;1.70;99.90;;;;;;12529402;23;89315;-89
2021/01/12 13:42:45;;;;;;;;;;;1.80;99.90;;;;;;12528598;23;90735;-90
2021/01/12 13:47:48;;;;;;;;;;;1.80;99.90;;;;;;12554471;23;87655;-90
2021/01/12 13:52:50;;;;;;;;;;;1.90;99.90;;;;;;12528768;23;90765;-89
2021/01/12 13:57:59;;;;;;;;;;;2.00;99.90;;;;;;12530703;23;89098;-89
2021/01/12 14:03:02;;;;;;;;;;;2.00;99.90;;;;;;12435926;23;91237;-89
2021/01/12 14:08:03;;;;;;;;;;;2.00;99.90;;;;;;12432448;23;89687;-90
2021/01/12 14:13:05;;;;;;;;;;;2.00;99.90;;;;;;12425898;23;87989;-90
2021/01/12 14:18:11;;;;;;;;;;;2.00;99.90;;;;;;12427454;23;90955;-90
2021/01/12 14:23:13;;;;;;;;;;;2.00;99.90;;;;;;12427296;23;88844;-89
2021/01/12 14:28:15;;;;;;;;;;;1.90;99.90;;;;;;12426462;23;88093;-90
2021/01/12 14:33:18;;;;;;;;;;;1.90;99.90;;;;;;12430780;23;91079;-91
2021/01/12 14:38:19;;;;;;;;;;;2.00;99.90;;;;;;12470372;23;89082;-91
2021/01/12 14:43:21;;;;;;;;;;;2.00;99.90;;;;;;12555130;23;88159;-91
2021/01/12 14:48:24;;;;;;;;;;;2.00;99.90;;;;;;12556813;23;87723;-91
2021/01/12 14:53:25;;;;;;;;;;;2.00;99.90;;;;;;12559162;23;87794;-90
2021/01/12 14:58:27;;;;;;;;;;;2.00;99.90;;;;;;12557149;23;87364;-90
2021/01/12 15:03:30;;;;;;;;;;;2.10;99.90;;;;;;12555908;23;87792;-91
2021/01/12 15:08:31;;;;;;;;;;;2.10;99.90;;;;;;12488295;23;89782;-91
2021/01/12 15:13:33;;;;;;;;;;;2.10;99.90;;;;;;12487673;23;88600;-91
2021/01/12 15:18:35;;;;;;;;;;;2.00;99.90;;;;;;12489614;23;87548;-90
2021/01/12 15:23:38;;;;;;;;;;;2.10;99.90;;;;;;12490451;23;88057;-91
2021/01/12 15:28:39;;;;;;;;;;;2.00;99.90;;;;;;12463683;23;88735;-90
2021/01/12 15:33:42;;;;;;;;;;;2.00;99.90;;;;;;12494767;23;88325;-93
2021/01/12 15:38:44;;;;;;;;;;;2.00;99.90;;;;;;12473703;23;90903;-92
2021/01/12 15:43:47;;;;;;;;;;;2.10;99.90;;;;;;12396573;23;89711;-92
2021/01/12 15:48:57;;;;;;;;;;;2.10;99.90;;;;;;12440357;23;88361;-93
2021/01/12 15:53:58;;;;;;;;;;;2.10;99.90;;;;;;12434858;23;88772;-92
2021/01/12 15:59:06;;;;;;;;;;;2.10;99.90;;;;;;12258966;23;90092;-92
2021/01/12 16:04:50;;;;;;;;;;;;;;;;;;;;;
2021/01/12 16:09:58;;;;;;;;;;;2.20;99.90;;;;;;12212433;23;89371;-93
2021/01/12 16:15:15;;;;;;;;;;;2.20;99.90;;;;;;12268857;23;87317;-93
2021/01/12 16:20:34;;;;;;;;;;;2.20;99.90;;;;;;12259258;23;89694;-93
2021/01/12 16:25:51;;;;;;;;;;;2.20;99.90;;;;;;12253773;23;89979;-93
2021/01/12 16:31:11;;;;;;;;;;;2.20;99.90;;;;;;12412285;23;88136;-94
2021/01/12 16:42:24;;;;;;;;;;;2.20;99.90;;;;;;12541832;23;89772;-94
2021/01/12 18:44:40;;;;;;;;;;;2.50;99.90;;;;;;12569830;22;86480;-92
2021/01/12 18:50:09;;;;;;;;;;;2.60;99.90;;;;;;12548213;23;89345;-93
2021/01/12 18:55:12;;;;;;;;;;;2.60;99.90;;;;;;12450012;23;87386;-93
2021/01/12 19:00:16;;;;;;;;;;;2.60;99.90;;;;;;12418777;23;90463;-92
2021/01/12 19:05:18;;;;;;;;;;;2.70;99.90;;;;;;12420605;23;89859;-93
2021/01/12 19:10:23;;;;;;;;;;;2.80;99.90;;;;;;12421279;23;87272;-92
2021/01/12 19:15:51;;;;;;;;;;;2.80;99.90;;;;;;12326846;23;90264;-92
